Norfolk, Virginia
Traffic Map
Current Weather Conditions
Norfolk, Virginia
Clear
Clear
44°
Feels Like: 44°
Wind Chill: 44° Ceiling: Unl
Heat Index: 44° Visibility: 10mi
Dew Point: 27° Wind: 3mph
Humidity: 51% Direction: 50° (NE)
Pressure: 30.08in Gusts: 0mph
Raw Report DataKORF 181951Z AUTO 05003KT 10SM CLR 07/M03 A3008 RMK AO2 SLP187 T00671028 TSNO
Traffic Incident Summary
Active as of:
Severity:
Category:
InformationThere was an issue retrieving the traffic information for this location. Please try a different location or try again shortly.
Advertisements
Track Severe Weather on mobile